sensor_id;sensor_type;location;lat;lon;timestamp;pressure;altitude;pressure_sealevel;temperature;humidity
14120;BME280;7138;49.246;9.100;2023-05-25T00:01:08;99185.41;;;13.06;70.79
14120;BME280;7138;49.246;9.100;2023-05-25T00:03:34;99196.66;;;13.11;70.70
14120;BME280;7138;49.246;9.100;2023-05-25T00:06:01;99200.97;;;13.07;70.77
14120;BME280;7138;49.246;9.100;2023-05-25T00:08:31;99192.34;;;13.05;70.56
14120;BME280;7138;49.246;9.100;2023-05-25T00:10:57;99199.28;;;13.09;70.93
14120;BME280;7138;49.246;9.100;2023-05-25T00:13:23;99198.38;;;13.04;70.81
14120;BME280;7138;49.246;9.100;2023-05-25T00:15:49;99190.59;;;13.04;70.89
14120;BME280;7138;49.246;9.100;2023-05-25T00:18:15;99194.09;;;13.00;71.18
14120;BME280;7138;49.246;9.100;2023-05-25T00:20:41;99187.16;;;12.99;70.83
14120;BME280;7138;49.246;9.100;2023-05-25T00:23:10;99179.38;;;13.02;70.59
14120;BME280;7138;49.246;9.100;2023-05-25T00:25:36;99183.69;;;13.02;70.58
14120;BME280;7138;49.246;9.100;2023-05-25T00:28:02;99173.31;;;12.96;71.24
14120;BME280;7138;49.246;9.100;2023-05-25T00:30:29;99174.19;;;12.98;70.90
14120;BME280;7138;49.246;9.100;2023-05-25T00:32:55;99179.38;;;12.93;71.12
14120;BME280;7138;49.246;9.100;2023-05-25T00:35:21;99175.06;;;12.92;71.61
14120;BME280;7138;49.246;9.100;2023-05-25T00:37:46;99180.28;;;12.88;71.38
14120;BME280;7138;49.246;9.100;2023-05-25T00:40:17;99174.22;;;12.87;71.70
14120;BME280;7138;49.246;9.100;2023-05-25T00:42:44;99182.91;;;12.73;71.85
14120;BME280;7138;49.246;9.100;2023-05-25T00:45:10;99187.22;;;12.66;72.09
14120;BME280;7138;49.246;9.100;2023-05-25T00:47:38;99185.47;;;12.68;71.90
14120;BME280;7138;49.246;9.100;2023-05-25T00:50:08;99185.47;;;12.68;72.37
14120;BME280;7138;49.246;9.100;2023-05-25T00:52:35;99176.84;;;12.61;72.26
14120;BME280;7138;49.246;9.100;2023-05-25T00:55:02;99182.03;;;12.58;72.83
14120;BME280;7138;49.246;9.100;2023-05-25T00:57:32;99182.91;;;12.59;72.33
14120;BME280;7138;49.246;9.100;2023-05-25T01:00:01;99181.19;;;12.64;72.35
14120;BME280;7138;49.246;9.100;2023-05-25T01:02:27;99182.03;;;12.66;72.22
14120;BME280;7138;49.246;9.100;2023-05-25T01:04:56;99183.78;;;12.64;71.99
14120;BME280;7138;49.246;9.100;2023-05-25T01:07:26;99184.63;;;12.66;71.96
14120;BME280;7138;49.246;9.100;2023-05-25T01:09:59;99182.91;;;12.73;71.78
14120;BME280;7138;49.246;9.100;2023-05-25T01:12:31;99184.59;;;12.68;71.89
14120;BME280;7138;49.246;9.100;2023-05-25T01:15:02;99185.47;;;12.65;72.43
14120;BME280;7138;49.246;9.100;2023-05-25T01:18:03;99178.56;;;12.63;72.68
14120;BME280;7138;49.246;9.100;2023-05-25T01:20:29;99186.38;;;12.53;73.16
14120;BME280;7138;49.246;9.100;2023-05-25T01:22:59;99164.75;;;12.44;73.36
14120;BME280;7138;49.246;9.100;2023-05-25T01:25:35;99175.13;;;12.53;73.20
14120;BME280;7138;49.246;9.100;2023-05-25T01:28:06;99175.13;;;12.53;73.17
14120;BME280;7138;49.246;9.100;2023-05-25T01:30:36;99172.53;;;12.54;72.54
14120;BME280;7138;49.246;9.100;2023-05-25T01:33:07;99167.34;;;12.54;73.17
14120;BME280;7138;49.246;9.100;2023-05-25T01:35:35;99162.16;;;12.54;73.01
14120;BME280;7138;49.246;9.100;2023-05-25T01:38:03;99166.50;;;12.48;73.81
14120;BME280;7138;49.246;9.100;2023-05-25T01:40:29;99163.03;;;12.43;73.62
14120;BME280;7138;49.246;9.100;2023-05-25T01:42:55;99169.94;;;12.44;73.56
14120;BME280;7138;49.246;9.100;2023-05-25T01:45:21;99166.47;;;12.40;73.84
14120;BME280;7138;49.246;9.100;2023-05-25T01:47:57;99167.34;;;12.44;73.64
14120;BME280;7138;49.246;9.100;2023-05-25T01:50:35;99175.13;;;12.41;73.79
14120;BME280;7138;49.246;9.100;2023-05-25T01:53:08;99172.56;;;12.33;73.81
14120;BME280;7138;49.246;9.100;2023-05-25T01:55:42;99173.41;;;12.32;74.10
14120;BME280;7138;49.246;9.100;2023-05-25T01:58:13;99180.31;;;12.29;73.85
14120;BME280;7138;49.246;9.100;2023-05-25T02:00:40;99173.41;;;12.23;74.74
14120;BME280;7138;49.246;9.100;2023-05-25T02:03:07;99173.41;;;12.25;74.49
14120;BME280;7138;49.246;9.100;2023-05-25T02:05:34;99176.00;;;12.23;74.67
14120;BME280;7138;49.246;9.100;2023-05-25T02:08:02;99167.38;;;12.21;74.31
14120;BME280;7138;49.246;9.100;2023-05-25T02:10:28;99166.50;;;12.18;74.59
14120;BME280;7138;49.246;9.100;2023-05-25T02:12:54;99163.06;;;12.16;75.23
14120;BME280;7138;49.246;9.100;2023-05-25T02:15:21;99166.50;;;12.12;75.01
14120;BME280;7138;49.246;9.100;2023-05-25T02:17:46;99160.44;;;12.11;75.21
14120;BME280;7138;49.246;9.100;2023-05-25T02:20:12;99165.63;;;12.08;74.87
14120;BME280;7138;49.246;9.100;2023-05-25T02:22:38;99161.31;;;12.12;75.22
14120;BME280;7138;49.246;9.100;2023-05-25T02:25:07;99148.34;;;12.13;74.82
14120;BME280;7138;49.246;9.100;2023-05-25T02:27:34;99150.91;;;12.16;74.45
14120;BME280;7138;49.246;9.100;2023-05-25T02:30:00;99154.41;;;12.24;74.71
14120;BME280;7138;49.246;9.100;2023-05-25T02:32:26;99155.28;;;12.22;74.66
14120;BME280;7138;49.246;9.100;2023-05-25T02:34:53;99157.88;;;12.19;75.02
14120;BME280;7138;49.246;9.100;2023-05-25T02:37:19;99155.28;;;12.16;74.65
14120;BME280;7138;49.246;9.100;2023-05-25T02:39:45;99154.41;;;12.12;75.31
14120;BME280;7138;49.246;9.100;2023-05-25T02:42:13;99149.22;;;12.15;74.72
14120;BME280;7138;49.246;9.100;2023-05-25T02:44:38;99154.38;;;12.17;74.98
14120;BME280;7138;49.246;9.100;2023-05-25T02:47:04;99151.78;;;12.20;74.93
14120;BME280;7138;49.246;9.100;2023-05-25T02:49:31;99155.25;;;12.23;74.84
14120;BME280;7138;49.246;9.100;2023-05-25T02:51:58;99153.50;;;12.22;74.68
14120;BME280;7138;49.246;9.100;2023-05-25T02:54:24;99157.88;;;12.28;74.20
14120;BME280;7138;49.246;9.100;2023-05-25T02:56:50;99155.25;;;12.14;74.99
14120;BME280;7138;49.246;9.100;2023-05-25T02:59:17;99163.91;;;12.15;74.68
14120;BME280;7138;49.246;9.100;2023-05-25T03:01:43;99164.75;;;12.07;75.00
14120;BME280;7138;49.246;9.100;2023-05-25T03:04:09;99166.47;;;12.04;75.31
14120;BME280;7138;49.246;9.100;2023-05-25T03:06:35;99159.56;;;12.01;75.26
14120;BME280;7138;49.246;9.100;2023-05-25T03:09:01;99163.00;;;11.96;76.19
14120;BME280;7138;49.246;9.100;2023-05-25T03:11:29;99172.53;;;11.97;75.76
14120;BME280;7138;49.246;9.100;2023-05-25T03:13:55;99173.41;;;11.94;75.89
14120;BME280;7138;49.246;9.100;2023-05-25T03:16:22;99169.91;;;11.92;75.48
14120;BME280;7138;49.246;9.100;2023-05-25T03:18:48;99170.78;;;11.93;75.77
14120;BME280;7138;49.246;9.100;2023-05-25T03:21:14;99174.25;;;11.93;75.84
14120;BME280;7138;49.246;9.100;2023-05-25T03:23:40;99179.41;;;11.87;75.63
14120;BME280;7138;49.246;9.100;2023-05-25T03:26:05;99183.72;;;11.79;76.46
14120;BME280;7138;49.246;9.100;2023-05-25T03:28:31;99180.25;;;11.74;76.27
14120;BME280;7138;49.246;9.100;2023-05-25T03:30:57;99190.59;;;11.74;76.63
14120;BME280;7138;49.246;9.100;2023-05-25T03:33:24;99188.84;;;11.69;77.03
14120;BME280;7138;49.246;9.100;2023-05-25T03:35:50;99188.84;;;11.66;77.51
14120;BME280;7138;49.246;9.100;2023-05-25T03:38:16;99188.81;;;11.61;77.22
14120;BME280;7138;49.246;9.100;2023-05-25T03:40:42;99189.69;;;11.57;78.10
14120;BME280;7138;49.246;9.100;2023-05-25T03:43:08;99193.13;;;11.56;77.91
14120;BME280;7138;49.246;9.100;2023-05-25T03:45:34;99194.84;;;11.57;77.22
14120;BME280;7138;49.246;9.100;2023-05-25T03:47:59;99193.97;;;11.58;77.81
14120;BME280;7138;49.246;9.100;2023-05-25T03:50:27;99187.94;;;11.55;78.01
14120;BME280;7138;49.246;9.100;2023-05-25T03:52:52;99193.13;;;11.51;78.17
14120;BME280;7138;49.246;9.100;2023-05-25T03:55:18;99197.41;;;11.52;78.15
14120;BME280;7138;49.246;9.100;2023-05-25T03:57:44;99205.16;;;11.49;78.40
14120;BME280;7138;49.246;9.100;2023-05-25T04:00:12;99199.13;;;11.55;77.91
14120;BME280;7138;49.246;9.100;2023-05-25T04:02:38;99197.44;;;11.57;77.90
14120;BME280;7138;49.246;9.100;2023-05-25T04:05:05;99195.69;;;11.53;77.87
14120;BME280;7138;49.246;9.100;2023-05-25T04:07:33;99205.22;;;11.63;77.59
14120;BME280;7138;49.246;9.100;2023-05-25T04:09:59;99216.44;;;11.65;77.38
14120;BME280;7138;49.246;9.100;2023-05-25T04:12:25;99211.34;;;11.70;77.60
14120;BME280;7138;49.246;9.100;2023-05-25T04:14:51;99209.53;;;11.63;77.42
14120;BME280;7138;49.246;9.100;2023-05-25T04:17:17;99215.66;;;11.77;77.41
14120;BME280;7138;49.246;9.100;2023-05-25T04:19:46;99219.09;;;11.74;77.49
14120;BME280;7138;49.246;9.100;2023-05-25T04:22:12;99218.22;;;11.71;77.52
14120;BME280;7138;49.246;9.100;2023-05-25T04:24:40;99223.44;;;11.75;77.58
14120;BME280;7138;49.246;9.100;2023-05-25T04:27:06;99221.72;;;11.76;78.02
14120;BME280;7138;49.246;9.100;2023-05-25T04:29:31;99225.19;;;11.82;77.62
14120;BME280;7138;49.246;9.100;2023-05-25T04:31:57;99231.25;;;11.95;77.28
14120;BME280;7138;49.246;9.100;2023-05-25T04:34:23;99233.84;;;11.93;77.20
14120;BME280;7138;49.246;9.100;2023-05-25T04:36:49;99234.72;;;11.95;76.89
14120;BME280;7138;49.246;9.100;2023-05-25T04:39:15;99237.31;;;11.95;77.85
14120;BME280;7138;49.246;9.100;2023-05-25T04:41:42;99230.41;;;12.00;77.08
14120;BME280;7138;49.246;9.100;2023-05-25T04:44:08;99232.16;;;12.07;77.48
14120;BME280;7138;49.246;9.100;2023-05-25T04:46:34;99234.75;;;12.06;78.08
14120;BME280;7138;49.246;9.100;2023-05-25T04:49:02;99238.19;;;12.11;78.04
14120;BME280;7138;49.246;9.100;2023-05-25T04:51:29;99233.88;;;12.16;78.71
14120;BME280;7138;49.246;9.100;2023-05-25T04:53:54;99239.97;;;12.24;78.54
14120;BME280;7138;49.246;9.100;2023-05-25T04:56:20;99246.03;;;12.37;78.63
14120;BME280;7138;49.246;9.100;2023-05-25T04:58:51;99244.28;;;12.49;78.92
14120;BME280;7138;49.246;9.100;2023-05-25T05:01:17;99230.47;;;12.52;78.27
14120;BME280;7138;49.246;9.100;2023-05-25T05:03:45;99241.69;;;12.78;78.45
14120;BME280;7138;49.246;9.100;2023-05-25T05:06:11;99243.38;;;13.25;77.78
14120;BME280;7138;49.246;9.100;2023-05-25T05:08:37;99237.06;;;13.86;76.65
14120;BME280;7138;49.246;9.100;2023-05-25T05:11:02;99240.91;;;14.63;74.56
14120;BME280;7138;49.246;9.100;2023-05-25T05:13:28;99243.72;;;15.35;72.22
14120;BME280;7138;49.246;9.100;2023-05-25T05:15:56;99245.44;;;16.07;69.96
14120;BME280;7138;49.246;9.100;2023-05-25T05:18:21;99246.28;;;16.67;67.76
14120;BME280;7138;49.246;9.100;2023-05-25T05:20:48;99243.69;;;17.16;67.17
14120;BME280;7138;49.246;9.100;2023-05-25T05:23:13;99245.38;;;17.65;66.17
14120;BME280;7138;49.246;9.100;2023-05-25T05:25:39;99264.34;;;18.17;63.41
14120;BME280;7138;49.246;9.100;2023-05-25T05:28:05;99262.19;;;18.34;62.68
14120;BME280;7138;49.246;9.100;2023-05-25T05:30:32;99266.09;;;18.55;62.59
14120;BME280;7138;49.246;9.100;2023-05-25T05:32:59;99257.38;;;18.54;61.59
14120;BME280;7138;49.246;9.100;2023-05-25T05:35:24;99265.88;;;18.64;61.97
14120;BME280;7138;49.246;9.100;2023-05-25T05:37:50;99263.66;;;18.84;61.25
14120;BME280;7138;49.246;9.100;2023-05-25T05:40:16;99262.09;;;19.11;62.31
14120;BME280;7138;49.246;9.100;2023-05-25T05:42:43;99258.38;;;19.52;61.34
14120;BME280;7138;49.246;9.100;2023-05-25T05:45:09;99251.06;;;19.94;60.55
14120;BME280;7138;49.246;9.100;2023-05-25T05:47:35;99270.41;;;20.48;59.67
14120;BME280;7138;49.246;9.100;2023-05-25T05:50:03;99271.38;;;20.98;60.54
14120;BME280;7138;49.246;9.100;2023-05-25T05:52:29;99269.31;;;21.34;57.65
14120;BME280;7138;49.246;9.100;2023-05-25T05:54:55;99269.28;;;21.59;56.81
14120;BME280;7138;49.246;9.100;2023-05-25T05:57:21;99276.19;;;21.63;57.18
14120;BME280;7138;49.246;9.100;2023-05-25T05:59:47;99277.41;;;21.77;56.02
14120;BME280;7138;49.246;9.100;2023-05-25T06:02:13;99291.88;;;21.91;56.09
14120;BME280;7138;49.246;9.100;2023-05-25T06:04:39;99284.88;;;21.90;55.18
14120;BME280;7138;49.246;9.100;2023-05-25T06:07:06;99286.50;;;21.94;56.51
14120;BME280;7138;49.246;9.100;2023-05-25T06:09:32;99295.25;;;22.17;56.33
14120;BME280;7138;49.246;9.100;2023-05-25T06:11:58;99294.81;;;22.51;56.01
14120;BME280;7138;49.246;9.100;2023-05-25T06:14:23;99296.41;;;22.99;55.77
14120;BME280;7138;49.246;9.100;2023-05-25T06:16:49;99293.84;;;23.39;54.66
14120;BME280;7138;49.246;9.100;2023-05-25T06:19:15;99301.09;;;23.54;54.38
14120;BME280;7138;49.246;9.100;2023-05-25T06:21:41;99305.25;;;23.80;54.05
14120;BME280;7138;49.246;9.100;2023-05-25T06:24:09;99310.66;;;23.57;52.75
14120;BME280;7138;49.246;9.100;2023-05-25T06:26:35;99309.44;;;23.03;53.22
14120;BME280;7138;49.246;9.100;2023-05-25T06:29:01;99312.34;;;22.52;53.42
14120;BME280;7138;49.246;9.100;2023-05-25T06:31:27;99320.34;;;22.27;54.50
14120;BME280;7138;49.246;9.100;2023-05-25T06:33:52;99326.66;;;21.74;54.73
14120;BME280;7138;49.246;9.100;2023-05-25T06:36:18;99309.09;;;21.50;55.79
14120;BME280;7138;49.246;9.100;2023-05-25T06:38:44;99320.53;;;21.24;56.22
14120;BME280;7138;49.246;9.100;2023-05-25T06:41:13;99318.63;;;21.01;55.86
14120;BME280;7138;49.246;9.100;2023-05-25T06:43:39;99316.38;;;20.91;58.29
14120;BME280;7138;49.246;9.100;2023-05-25T06:46:06;99311.25;;;20.86;57.75
14120;BME280;7138;49.246;9.100;2023-05-25T06:48:34;99305.28;;;20.81;57.95
14120;BME280;7138;49.246;9.100;2023-05-25T06:51:00;99313.41;;;20.73;58.30
14120;BME280;7138;49.246;9.100;2023-05-25T06:53:26;99314.63;;;20.63;57.20
14120;BME280;7138;49.246;9.100;2023-05-25T06:55:52;99314.16;;;20.49;59.50
14120;BME280;7138;49.246;9.100;2023-05-25T06:58:19;99307.44;;;20.41;59.16
14120;BME280;7138;49.246;9.100;2023-05-25T07:00:45;99315.66;;;20.30;60.69
14120;BME280;7138;49.246;9.100;2023-05-25T07:03:10;99312.00;;;20.34;60.69
14120;BME280;7138;49.246;9.100;2023-05-25T07:05:36;99310.16;;;20.38;59.43
14120;BME280;7138;49.246;9.100;2023-05-25T07:08:02;99309.63;;;20.27;59.27
14120;BME280;7138;49.246;9.100;2023-05-25T07:10:28;99308.84;;;20.22;59.61
14120;BME280;7138;49.246;9.100;2023-05-25T07:12:54;99303.13;;;20.09;60.13
14120;BME280;7138;49.246;9.100;2023-05-25T07:15:21;99304.91;;;20.07;61.15
14120;BME280;7138;49.246;9.100;2023-05-25T07:17:48;99302.00;;;20.16;60.98
14120;BME280;7138;49.246;9.100;2023-05-25T07:20:14;99299.19;;;20.22;60.00
14120;BME280;7138;49.246;9.100;2023-05-25T07:22:41;99291.50;;;20.16;59.84
14120;BME280;7138;49.246;9.100;2023-05-25T07:25:08;99295.28;;;20.07;60.83
14120;BME280;7138;49.246;9.100;2023-05-25T07:27:34;99295.97;;;20.14;60.77
14120;BME280;7138;49.246;9.100;2023-05-25T07:30:00;99298.94;;;20.02;60.51
14120;BME280;7138;49.246;9.100;2023-05-25T07:32:27;99295.00;;;19.87;60.62
14120;BME280;7138;49.246;9.100;2023-05-25T07:34:53;99304.19;;;19.71;61.66
14120;BME280;7138;49.246;9.100;2023-05-25T07:37:19;99304.84;;;19.79;61.51
14120;BME280;7138;49.246;9.100;2023-05-25T07:39:45;99300.19;;;19.89;61.79
14120;BME280;7138;49.246;9.100;2023-05-25T07:42:11;99305.34;;;19.92;61.08
14120;BME280;7138;49.246;9.100;2023-05-25T07:44:37;99313.13;;;19.95;61.90
14120;BME280;7138;49.246;9.100;2023-05-25T07:47:03;99310.34;;;20.01;62.15
14120;BME280;7138;49.246;9.100;2023-05-25T07:49:32;99309.03;;;20.15;62.18
14120;BME280;7138;49.246;9.100;2023-05-25T07:51:58;99307.09;;;20.22;61.32
14120;BME280;7138;49.246;9.100;2023-05-25T07:54:24;99308.56;;;20.32;61.77
14120;BME280;7138;49.246;9.100;2023-05-25T07:56:49;99310.31;;;20.33;61.45
14120;BME280;7138;49.246;9.100;2023-05-25T07:59:15;99310.06;;;20.41;60.73
14120;BME280;7138;49.246;9.100;2023-05-25T08:01:41;99308.09;;;20.47;60.21
14120;BME280;7138;49.246;9.100;2023-05-25T08:04:07;99310.47;;;20.55;62.67
14120;BME280;7138;49.246;9.100;2023-05-25T08:06:34;99313.47;;;20.72;61.95
14120;BME280;7138;49.246;9.100;2023-05-25T08:09:02;99305.97;;;20.86;63.05
14120;BME280;7138;49.246;9.100;2023-05-25T08:11:28;99309.06;;;20.99;61.94
14120;BME280;7138;49.246;9.100;2023-05-25T08:13:53;99305.66;;;21.23;62.31
14120;BME280;7138;49.246;9.100;2023-05-25T08:16:19;99312.13;;;21.39;62.91
14120;BME280;7138;49.246;9.100;2023-05-25T08:18:45;99308.84;;;21.57;61.92
14120;BME280;7138;49.246;9.100;2023-05-25T08:21:11;99307.34;;;21.75;58.90
14120;BME280;7138;49.246;9.100;2023-05-25T08:23:39;99309.56;;;21.86;58.14
14120;BME280;7138;49.246;9.100;2023-05-25T08:26:07;99311.97;;;21.93;61.95
14120;BME280;7138;49.246;9.100;2023-05-25T08:28:33;99306.44;;;22.01;59.65
14120;BME280;7138;49.246;9.100;2023-05-25T08:30:59;99308.84;;;22.07;59.76
14120;BME280;7138;49.246;9.100;2023-05-25T08:33:25;99309.50;;;22.12;61.00
14120;BME280;7138;49.246;9.100;2023-05-25T08:35:52;99303.78;;;22.24;62.11
14120;BME280;7138;49.246;9.100;2023-05-25T08:38:18;99316.25;;;22.42;59.14
14120;BME280;7138;49.246;9.100;2023-05-25T08:40:45;99313.63;;;22.42;58.38
14120;BME280;7138;49.246;9.100;2023-05-25T08:43:16;99308.91;;;22.50;59.87
14120;BME280;7138;49.246;9.100;2023-05-25T08:45:42;99303.03;;;22.65;58.98
14120;BME280;7138;49.246;9.100;2023-05-25T08:48:12;99309.81;;;22.72;58.50
14120;BME280;7138;49.246;9.100;2023-05-25T08:50:41;99303.97;;;22.86;59.61
14120;BME280;7138;49.246;9.100;2023-05-25T08:53:10;99305.63;;;22.89;57.19
14120;BME280;7138;49.246;9.100;2023-05-25T08:55:39;99308.28;;;22.89;59.82
14120;BME280;7138;49.246;9.100;2023-05-25T08:58:13;99315.13;;;22.93;60.29
14120;BME280;7138;49.246;9.100;2023-05-25T09:00:50;99291.50;;;22.90;58.50
14120;BME280;7138;49.246;9.100;2023-05-25T09:03:19;99323.34;;;23.07;56.42
14120;BME280;7138;49.246;9.100;2023-05-25T09:05:46;99303.00;;;22.89;57.43
14120;BME280;7138;49.246;9.100;2023-05-25T09:08:12;99311.44;;;22.97;57.80
14120;BME280;7138;49.246;9.100;2023-05-25T09:10:39;99310.97;;;22.87;56.97
14120;BME280;7138;49.246;9.100;2023-05-25T09:13:05;99305.88;;;22.82;57.76
14120;BME280;7138;49.246;9.100;2023-05-25T09:15:34;99314.59;;;22.84;58.11
14120;BME280;7138;49.246;9.100;2023-05-25T09:18:00;99314.22;;;22.94;61.25
14120;BME280;7138;49.246;9.100;2023-05-25T09:20:26;99308.81;;;22.97;56.83
14120;BME280;7138;49.246;9.100;2023-05-25T09:22:56;99317.97;;;22.88;57.30
14120;BME280;7138;49.246;9.100;2023-05-25T09:25:23;99308.94;;;22.94;58.25
14120;BME280;7138;49.246;9.100;2023-05-25T09:27:52;99318.38;;;22.99;57.88
14120;BME280;7138;49.246;9.100;2023-05-25T09:30:18;99313.84;;;23.03;57.08
14120;BME280;7138;49.246;9.100;2023-05-25T09:32:45;99314.31;;;23.12;61.42
14120;BME280;7138;49.246;9.100;2023-05-25T09:35:13;99314.25;;;23.14;56.39
14120;BME280;7138;49.246;9.100;2023-05-25T09:37:41;99310.16;;;23.07;57.80
14120;BME280;7138;49.246;9.100;2023-05-25T09:40:08;99312.28;;;23.19;58.88
14120;BME280;7138;49.246;9.100;2023-05-25T09:42:36;99323.19;;;23.31;58.93
14120;BME280;7138;49.246;9.100;2023-05-25T09:45:03;99320.47;;;23.33;57.35
14120;BME280;7138;49.246;9.100;2023-05-25T09:47:30;99313.94;;;23.43;58.64
14120;BME280;7138;49.246;9.100;2023-05-25T09:49:57;99304.41;;;23.59;58.79
14120;BME280;7138;49.246;9.100;2023-05-25T09:52:24;99305.72;;;23.69;57.43
14120;BME280;7138;49.246;9.100;2023-05-25T09:54:51;99317.38;;;23.84;56.97
14120;BME280;7138;49.246;9.100;2023-05-25T09:57:19;99309.91;;;23.93;59.30
14120;BME280;7138;49.246;9.100;2023-05-25T09:59:46;99310.03;;;24.11;59.08
14120;BME280;7138;49.246;9.100;2023-05-25T10:02:13;99308.19;;;24.13;58.66
14120;BME280;7138;49.246;9.100;2023-05-25T10:04:39;99309.47;;;24.23;59.05
14120;BME280;7138;49.246;9.100;2023-05-25T10:07:08;99315.34;;;24.29;57.92
14120;BME280;7138;49.246;9.100;2023-05-25T10:09:39;99307.91;;;24.37;56.15
14120;BME280;7138;49.246;9.100;2023-05-25T10:12:09;99311.41;;;24.38;55.93
14120;BME280;7138;49.246;9.100;2023-05-25T10:14:37;99311.00;;;24.28;55.11
14120;BME280;7138;49.246;9.100;2023-05-25T10:17:05;99307.09;;;24.17;55.50
14120;BME280;7138;49.246;9.100;2023-05-25T10:19:38;99312.53;;;24.14;55.22
14120;BME280;7138;49.246;9.100;2023-05-25T10:22:15;99319.78;;;24.09;55.60
14120;BME280;7138;49.246;9.100;2023-05-25T10:24:53;99316.97;;;23.93;55.02
14120;BME280;7138;49.246;9.100;2023-05-25T10:27:24;99301.16;;;23.73;55.30
14120;BME280;7138;49.246;9.100;2023-05-25T10:29:55;99311.72;;;23.73;56.61
14120;BME280;7138;49.246;9.100;2023-05-25T10:32:22;99314.88;;;23.81;58.02
14120;BME280;7138;49.246;9.100;2023-05-25T10:34:51;99310.47;;;23.81;55.50
14120;BME280;7138;49.246;9.100;2023-05-25T10:37:18;99306.19;;;23.79;56.44
14120;BME280;7138;49.246;9.100;2023-05-25T10:39:45;99302.97;;;23.91;57.25
14120;BME280;7138;49.246;9.100;2023-05-25T10:42:12;99312.69;;;23.90;58.68
14120;BME280;7138;49.246;9.100;2023-05-25T10:44:40;99306.50;;;23.91;54.46
14120;BME280;7138;49.246;9.100;2023-05-25T10:47:07;99304.19;;;23.84;54.21
14120;BME280;7138;49.246;9.100;2023-05-25T10:49:53;99294.56;;;23.83;58.37
14120;BME280;7138;49.246;9.100;2023-05-25T10:52:21;99299.47;;;23.90;56.68
14120;BME280;7138;49.246;9.100;2023-05-25T10:54:47;99297.34;;;23.99;55.59
14120;BME280;7138;49.246;9.100;2023-05-25T10:57:18;99294.91;;;23.94;56.32
14120;BME280;7138;49.246;9.100;2023-05-25T10:59:48;99299.94;;;24.00;57.17
14120;BME280;7138;49.246;9.100;2023-05-25T11:02:15;99307.72;;;24.03;55.59
14120;BME280;7138;49.246;9.100;2023-05-25T11:04:41;99307.50;;;24.08;55.50
14120;BME280;7138;49.246;9.100;2023-05-25T11:07:08;99302.44;;;24.03;55.83
14120;BME280;7138;49.246;9.100;2023-05-25T11:09:55;99303.69;;;24.15;56.11
14120;BME280;7138;49.246;9.100;2023-05-25T11:12:22;99298.13;;;24.21;56.50
14120;BME280;7138;49.246;9.100;2023-05-25T11:15:12;99297.78;;;24.28;55.14
14120;BME280;7138;49.246;9.100;2023-05-25T11:18:13;99304.47;;;24.17;55.50
14120;BME280;7138;49.246;9.100;2023-05-25T11:20:39;99303.69;;;24.15;55.46
14120;BME280;7138;49.246;9.100;2023-05-25T11:23:21;99301.00;;;24.16;55.94
14120;BME280;7138;49.246;9.100;2023-05-25T11:25:49;99299.03;;;24.20;55.46
14120;BME280;7138;49.246;9.100;2023-05-25T11:28:14;99305.84;;;24.25;55.61
14120;BME280;7138;49.246;9.100;2023-05-25T11:30:40;99293.31;;;24.29;57.43
14120;BME280;7138;49.246;9.100;2023-05-25T11:33:07;99293.03;;;24.35;56.80
14120;BME280;7138;49.246;9.100;2023-05-25T11:35:34;99304.19;;;24.41;56.26
14120;BME280;7138;49.246;9.100;2023-05-25T11:38:07;99300.66;;;24.41;56.76
14120;BME280;7138;49.246;9.100;2023-05-25T11:40:33;99300.47;;;24.45;55.89
14120;BME280;7138;49.246;9.100;2023-05-25T11:43:01;99290.19;;;24.39;55.41
14120;BME280;7138;49.246;9.100;2023-05-25T11:45:30;99288.84;;;24.31;58.30
14120;BME280;7138;49.246;9.100;2023-05-25T11:47:58;99283.41;;;24.34;60.04
14120;BME280;7138;49.246;9.100;2023-05-25T11:50:24;99278.75;;;24.39;58.12
14120;BME280;7138;49.246;9.100;2023-05-25T11:52:50;99280.81;;;24.51;59.43
14120;BME280;7138;49.246;9.100;2023-05-25T11:55:16;99269.16;;;24.55;58.68
14120;BME280;7138;49.246;9.100;2023-05-25T11:57:42;99285.00;;;24.74;57.86
14120;BME280;7138;49.246;9.100;2023-05-25T12:00:11;99285.97;;;24.90;57.22
14120;BME280;7138;49.246;9.100;2023-05-25T12:02:39;99288.41;;;24.94;56.17
14120;BME280;7138;49.246;9.100;2023-05-25T12:05:07;99275.59;;;25.04;58.88
14120;BME280;7138;49.246;9.100;2023-05-25T12:07:34;99276.81;;;25.14;59.34
14120;BME280;7138;49.246;9.100;2023-05-25T12:10:07;99270.13;;;25.24;59.72
14120;BME280;7138;49.246;9.100;2023-05-25T12:12:39;99281.81;;;25.37;57.18
14120;BME280;7138;49.246;9.100;2023-05-25T12:15:08;99277.53;;;25.52;57.81
14120;BME280;7138;49.246;9.100;2023-05-25T12:17:35;99279.00;;;25.58;57.06
14120;BME280;7138;49.246;9.100;2023-05-25T12:20:01;99272.69;;;25.60;57.20
14120;BME280;7138;49.246;9.100;2023-05-25T12:22:28;99271.22;;;25.54;57.85
14120;BME280;7138;49.246;9.100;2023-05-25T12:24:54;99262.41;;;25.54;57.20
14120;BME280;7138;49.246;9.100;2023-05-25T12:27:20;99263.88;;;25.42;55.24
14120;BME280;7138;49.246;9.100;2023-05-25T12:29:49;99267.25;;;25.46;59.75
14120;BME280;7138;49.246;9.100;2023-05-25T12:32:18;99261.94;;;25.63;59.51
14120;BME280;7138;49.246;9.100;2023-05-25T12:34:44;99262.56;;;25.68;56.81
14120;BME280;7138;49.246;9.100;2023-05-25T12:37:18;99264.72;;;25.77;55.41
14120;BME280;7138;49.246;9.100;2023-05-25T12:39:44;99268.16;;;25.79;57.60
14120;BME280;7138;49.246;9.100;2023-05-25T12:42:13;99267.72;;;25.71;54.97
14120;BME280;7138;49.246;9.100;2023-05-25T12:44:44;99273.78;;;25.73;57.91
14120;BME280;7138;49.246;9.100;2023-05-25T12:47:13;99266.69;;;25.74;57.83
14120;BME280;7138;49.246;9.100;2023-05-25T12:49:43;99266.34;;;25.80;58.25
14120;BME280;7138;49.246;9.100;2023-05-25T12:52:10;99265.16;;;25.85;59.62
14120;BME280;7138;49.246;9.100;2023-05-25T12:54:42;99266.56;;;25.92;56.74
14120;BME280;7138;49.246;9.100;2023-05-25T12:57:11;99275.59;;;25.88;55.07
14120;BME280;7138;49.246;9.100;2023-05-25T12:59:41;99271.34;;;25.86;53.46
14120;BME280;7138;49.246;9.100;2023-05-25T13:02:08;99268.91;;;25.81;54.97
14120;BME280;7138;49.246;9.100;2023-05-25T13:04:36;99269.06;;;25.78;55.77
14120;BME280;7138;49.246;9.100;2023-05-25T13:07:05;99274.53;;;25.75;57.26
14120;BME280;7138;49.246;9.100;2023-05-25T13:09:33;99262.41;;;25.71;55.81
14120;BME280;7138;49.246;9.100;2023-05-25T13:12:00;99269.03;;;25.63;54.34